Sign in to follow this  
brucek

Denver area blizzard.

Recommended Posts

For those that like to fly in extreme weather, today (Sunday 4/10/05) is socked in here in Denver. METARs for the Denver area/Front Range airports at the moment are:KAPA 101621Z 36021G33KT 1/4SM +SN BLSN FZFG OVC003 M02/M03 A2984 RMK AO2 PK WND 01033/1613 P0000 $= KBJC 101548Z 02030G35KT 1/8SM SN BLSN VV002 M01/M01 A2987 RMK VSBY 1/8V1/4= KCOS 101554Z 34030G40KT 1/4SM SN FZFG OVC001 M01/M03 A2970 RMK AO2 PK WND 36049/1521 SLP060 P0001 T10111028= KCYS 101641Z 36019G33KT 1/2SM SN FZFG BKN005 OVC014 M02/M04 A2983 RMK AO2 PK WND 35041/1630 P0000= KDEN 101643Z 34025G31KT 1/8SM R35L/1200V1800FT +SN BLSN FZFG OVC003 M01/M02 A2985 RMK AO2 PK WND 36038/1614 TWR VIS 1/4 TWR IN CLDS $= KFNL 101635Z AUTO 34021G30KT OVC001 M01/M04 A2991 RMK AO1= KGXY 101435Z AUTO 36022G31KT 1/2SM OVC002 01/M02 A2986 RMK AO1 P0001= A good day to stay inside and play on the computer :)Bruce.

Share this post


Link to post
Share on other sites
Help AVSIM continue to serve you!
Please donate today!

Nice!For some more bad weather, you might also want to check this page, updated as required and auto-reloaded every 2 min:http://kamala.cod.edu/svr/Not very fun for the people really living in those area's with such bad weather (understatement, wish they can stay clear and be safe!)... but for us flightsimmers, it can be quite an exciting ride!Cheers!Stormchaser

Share this post


Link to post
Share on other sites

You're welcome, KingAirVols.Thanks for the other link Stormchaser. I was planning to go instrument flying today, but had cancelled several days ago when this storm became a certainty for today. As you say, much more fun hand-flying the LDS B76 down to minimums. And much more safer.Bruce.

Share this post


Link to post
Share on other sites

Create an account or sign in to comment

You need to be a member in order to leave a comment

Create an account

Sign up for a new account in our community. It's easy!

Register a new account

Sign in

Already have an account? Sign in here.

Sign In Now
Sign in to follow this